Willow Springs, California
Current Conditions -  °F | °C
As of 5:56 PM on Friday 24 Oct 2014 (Local Time) from KWJF Reporting Station
Clear Clear  
Wind Chill: 77°   Ceiling: Unl
Heat Index: 77°   Visibility: 10mi
Dew Point: 30°   Wind: 15mph
Humidity: 18%   Direction: 230°SW
Pressure: 29.98"   Gusts: NA
Location:  34.8931°N, 118.353°W
Report Text: KWJF 250056Z 23013KT 10SM CLR 25/M01 A2998 RMK AO2 SLP145 T02501011
Loading
Personal Weather Stations






























Interactive Weather Map
Tropical Storm Tracking
New forecast layout! Learn more

10-Day Weather Forecast

Advertisements
Track Severe Weather on mobile